sensor_id;sensor_type;location;lat;lon;timestamp;P1;durP1;ratioP1;P2;durP2;ratioP2
11614;SDS011;5863;52.832;4.758;2023-06-24T00:01:31;10.80;;;8.30;;
11614;SDS011;5863;52.832;4.758;2023-06-24T00:03:58;9.40;;;8.13;;
11614;SDS011;5863;52.832;4.758;2023-06-24T00:06:25;9.98;;;8.98;;
11614;SDS011;5863;52.832;4.758;2023-06-24T00:08:52;10.55;;;7.95;;
11614;SDS011;5863;52.832;4.758;2023-06-24T00:11:25;11.68;;;8.32;;
11614;SDS011;5863;52.832;4.758;2023-06-24T00:13:52;8.95;;;8.07;;
11614;SDS011;5863;52.832;4.758;2023-06-24T00:16:19;10.07;;;8.52;;
11614;SDS011;5863;52.832;4.758;2023-06-24T00:18:53;9.35;;;8.10;;
11614;SDS011;5863;52.832;4.758;2023-06-24T00:21:23;11.23;;;8.88;;
11614;SDS011;5863;52.832;4.758;2023-06-24T00:23:54;12.38;;;9.32;;
11614;SDS011;5863;52.832;4.758;2023-06-24T00:26:21;11.93;;;9.73;;
11614;SDS011;5863;52.832;4.758;2023-06-24T00:28:51;10.48;;;9.38;;
11614;SDS011;5863;52.832;4.758;2023-06-24T00:31:17;10.35;;;9.23;;
11614;SDS011;5863;52.832;4.758;2023-06-24T00:33:45;11.32;;;9.13;;
11614;SDS011;5863;52.832;4.758;2023-06-24T00:36:13;11.77;;;8.88;;
11614;SDS011;5863;52.832;4.758;2023-06-24T00:38:40;10.75;;;8.75;;
11614;SDS011;5863;52.832;4.758;2023-06-24T00:41:07;9.90;;;8.90;;
11614;SDS011;5863;52.832;4.758;2023-06-24T00:43:33;10.20;;;8.75;;
11614;SDS011;5863;52.832;4.758;2023-06-24T00:46:00;9.57;;;8.57;;
11614;SDS011;5863;52.832;4.758;2023-06-24T00:48:28;11.85;;;9.40;;
11614;SDS011;5863;52.832;4.758;2023-06-24T00:50:56;10.48;;;9.13;;
11614;SDS011;5863;52.832;4.758;2023-06-24T00:53:25;9.98;;;8.23;;
11614;SDS011;5863;52.832;4.758;2023-06-24T00:55:52;10.55;;;8.98;;
11614;SDS011;5863;52.832;4.758;2023-06-24T00:58:21;11.93;;;9.60;;
11614;SDS011;5863;52.832;4.758;2023-06-24T01:00:49;11.65;;;8.55;;
11614;SDS011;5863;52.832;4.758;2023-06-24T01:03:22;10.45;;;8.73;;
11614;SDS011;5863;52.832;4.758;2023-06-24T01:05:50;11.30;;;9.07;;
11614;SDS011;5863;52.832;4.758;2023-06-24T01:08:16;11.77;;;9.85;;
11614;SDS011;5863;52.832;4.758;2023-06-24T01:10:48;11.07;;;8.98;;
11614;SDS011;5863;52.832;4.758;2023-06-24T01:13:16;11.70;;;9.45;;
11614;SDS011;5863;52.832;4.758;2023-06-24T01:15:42;12.23;;;9.88;;
11614;SDS011;5863;52.832;4.758;2023-06-24T01:18:10;12.75;;;9.85;;
11614;SDS011;5863;52.832;4.758;2023-06-24T01:20:44;13.88;;;9.93;;
11614;SDS011;5863;52.832;4.758;2023-06-24T01:23:26;13.55;;;10.75;;
11614;SDS011;5863;52.832;4.758;2023-06-24T01:26:19;14.27;;;10.55;;
11614;SDS011;5863;52.832;4.758;2023-06-24T01:29:07;12.98;;;10.18;;
11614;SDS011;5863;52.832;4.758;2023-06-24T01:31:48;15.32;;;10.20;;
11614;SDS011;5863;52.832;4.758;2023-06-24T01:34:22;11.95;;;10.18;;
11614;SDS011;5863;52.832;4.758;2023-06-24T01:36:55;12.35;;;10.43;;
11614;SDS011;5863;52.832;4.758;2023-06-24T01:39:30;13.35;;;10.52;;
11614;SDS011;5863;52.832;4.758;2023-06-24T01:42:01;14.13;;;11.00;;
11614;SDS011;5863;52.832;4.758;2023-06-24T01:44:33;14.05;;;11.85;;
11614;SDS011;5863;52.832;4.758;2023-06-24T01:47:02;13.70;;;10.82;;
11614;SDS011;5863;52.832;4.758;2023-06-24T01:49:33;14.10;;;11.85;;
11614;SDS011;5863;52.832;4.758;2023-06-24T01:52:07;13.38;;;11.65;;
11614;SDS011;5863;52.832;4.758;2023-06-24T01:54:34;16.67;;;12.48;;
11614;SDS011;5863;52.832;4.758;2023-06-24T01:57:02;17.15;;;13.20;;
11614;SDS011;5863;52.832;4.758;2023-06-24T01:59:31;15.02;;;12.98;;
11614;SDS011;5863;52.832;4.758;2023-06-24T02:01:59;15.98;;;14.30;;
11614;SDS011;5863;52.832;4.758;2023-06-24T02:04:29;15.13;;;12.77;;
11614;SDS011;5863;52.832;4.758;2023-06-24T02:06:58;15.18;;;13.20;;
11614;SDS011;5863;52.832;4.758;2023-06-24T02:09:27;19.05;;;14.18;;
11614;SDS011;5863;52.832;4.758;2023-06-24T02:11:56;15.57;;;13.30;;
11614;SDS011;5863;52.832;4.758;2023-06-24T02:14:23;16.20;;;13.68;;
11614;SDS011;5863;52.832;4.758;2023-06-24T02:16:52;17.50;;;13.82;;
11614;SDS011;5863;52.832;4.758;2023-06-24T02:19:22;18.85;;;13.63;;
11614;SDS011;5863;52.832;4.758;2023-06-24T02:21:51;15.40;;;13.60;;
11614;SDS011;5863;52.832;4.758;2023-06-24T02:24:18;15.55;;;13.35;;
11614;SDS011;5863;52.832;4.758;2023-06-24T02:26:46;16.30;;;13.25;;
11614;SDS011;5863;52.832;4.758;2023-06-24T02:29:13;17.55;;;12.57;;
11614;SDS011;5863;52.832;4.758;2023-06-24T02:31:40;16.58;;;13.63;;
11614;SDS011;5863;52.832;4.758;2023-06-24T02:34:07;15.55;;;13.23;;
11614;SDS011;5863;52.832;4.758;2023-06-24T02:36:34;15.52;;;13.38;;
11614;SDS011;5863;52.832;4.758;2023-06-24T02:39:02;14.95;;;13.23;;
11614;SDS011;5863;52.832;4.758;2023-06-24T02:41:29;17.02;;;12.73;;
11614;SDS011;5863;52.832;4.758;2023-06-24T02:43:55;15.95;;;13.25;;
11614;SDS011;5863;52.832;4.758;2023-06-24T02:46:22;15.32;;;12.93;;
11614;SDS011;5863;52.832;4.758;2023-06-24T02:48:50;14.07;;;11.68;;
11614;SDS011;5863;52.832;4.758;2023-06-24T02:51:18;13.50;;;10.95;;
11614;SDS011;5863;52.832;4.758;2023-06-24T02:53:46;15.95;;;11.65;;
11614;SDS011;5863;52.832;4.758;2023-06-24T02:56:14;13.68;;;11.85;;
11614;SDS011;5863;52.832;4.758;2023-06-24T02:58:45;13.82;;;11.43;;
11614;SDS011;5863;52.832;4.758;2023-06-24T03:01:13;12.95;;;11.38;;
11614;SDS011;5863;52.832;4.758;2023-06-24T03:03:41;14.05;;;11.07;;
11614;SDS011;5863;52.832;4.758;2023-06-24T03:06:08;12.10;;;9.95;;
11614;SDS011;5863;52.832;4.758;2023-06-24T03:08:38;12.40;;;11.10;;
11614;SDS011;5863;52.832;4.758;2023-06-24T03:11:05;14.20;;;10.90;;
11614;SDS011;5863;52.832;4.758;2023-06-24T03:13:33;14.55;;;10.48;;
11614;SDS011;5863;52.832;4.758;2023-06-24T03:15:59;13.82;;;11.00;;
11614;SDS011;5863;52.832;4.758;2023-06-24T03:18:26;14.65;;;11.10;;
11614;SDS011;5863;52.832;4.758;2023-06-24T03:20:53;13.57;;;10.50;;
11614;SDS011;5863;52.832;4.758;2023-06-24T03:23:19;16.23;;;11.05;;
11614;SDS011;5863;52.832;4.758;2023-06-24T03:25:46;14.52;;;11.15;;
11614;SDS011;5863;52.832;4.758;2023-06-24T03:28:13;13.95;;;11.27;;
11614;SDS011;5863;52.832;4.758;2023-06-24T03:30:41;13.20;;;10.10;;
11614;SDS011;5863;52.832;4.758;2023-06-24T03:33:08;12.77;;;10.02;;
11614;SDS011;5863;52.832;4.758;2023-06-24T03:35:34;13.48;;;10.75;;
11614;SDS011;5863;52.832;4.758;2023-06-24T03:38:01;11.75;;;10.40;;
11614;SDS011;5863;52.832;4.758;2023-06-24T03:40:27;12.13;;;10.25;;
11614;SDS011;5863;52.832;4.758;2023-06-24T03:42:54;12.00;;;9.32;;
11614;SDS011;5863;52.832;4.758;2023-06-24T03:45:21;12.23;;;9.15;;
11614;SDS011;5863;52.832;4.758;2023-06-24T03:47:49;11.30;;;8.98;;
11614;SDS011;5863;52.832;4.758;2023-06-24T03:50:16;11.63;;;8.73;;
11614;SDS011;5863;52.832;4.758;2023-06-24T03:52:42;12.77;;;9.15;;
11614;SDS011;5863;52.832;4.758;2023-06-24T03:55:09;11.18;;;9.45;;
11614;SDS011;5863;52.832;4.758;2023-06-24T03:57:36;13.48;;;9.30;;
11614;SDS011;5863;52.832;4.758;2023-06-24T04:00:03;10.95;;;9.00;;
11614;SDS011;5863;52.832;4.758;2023-06-24T04:02:37;11.55;;;8.15;;
11614;SDS011;5863;52.832;4.758;2023-06-24T04:05:06;11.85;;;8.75;;
11614;SDS011;5863;52.832;4.758;2023-06-24T04:07:33;12.73;;;9.18;;
11614;SDS011;5863;52.832;4.758;2023-06-24T04:10:01;11.75;;;9.25;;
11614;SDS011;5863;52.832;4.758;2023-06-24T04:12:29;11.73;;;8.30;;
11614;SDS011;5863;52.832;4.758;2023-06-24T04:14:55;10.32;;;8.63;;
11614;SDS011;5863;52.832;4.758;2023-06-24T04:17:22;10.82;;;9.00;;
11614;SDS011;5863;52.832;4.758;2023-06-24T04:19:49;12.68;;;8.13;;
11614;SDS011;5863;52.832;4.758;2023-06-24T04:22:17;10.02;;;8.38;;
11614;SDS011;5863;52.832;4.758;2023-06-24T04:24:44;13.70;;;8.10;;
11614;SDS011;5863;52.832;4.758;2023-06-24T04:27:10;9.75;;;8.35;;
11614;SDS011;5863;52.832;4.758;2023-06-24T04:29:37;11.98;;;7.88;;
11614;SDS011;5863;52.832;4.758;2023-06-24T04:32:04;11.35;;;8.30;;
11614;SDS011;5863;52.832;4.758;2023-06-24T04:34:31;8.73;;;7.78;;
11614;SDS011;5863;52.832;4.758;2023-06-24T04:36:58;10.18;;;8.27;;
11614;SDS011;5863;52.832;4.758;2023-06-24T04:39:26;11.55;;;8.85;;
11614;SDS011;5863;52.832;4.758;2023-06-24T04:41:53;10.93;;;8.40;;
11614;SDS011;5863;52.832;4.758;2023-06-24T04:44:20;10.10;;;7.90;;
11614;SDS011;5863;52.832;4.758;2023-06-24T04:46:46;10.15;;;7.93;;
11614;SDS011;5863;52.832;4.758;2023-06-24T04:49:13;9.35;;;7.90;;
11614;SDS011;5863;52.832;4.758;2023-06-24T04:51:40;8.95;;;7.15;;
11614;SDS011;5863;52.832;4.758;2023-06-24T04:54:08;9.88;;;7.13;;
11614;SDS011;5863;52.832;4.758;2023-06-24T04:56:36;10.18;;;6.47;;
11614;SDS011;5863;52.832;4.758;2023-06-24T04:59:03;8.18;;;6.63;;
11614;SDS011;5863;52.832;4.758;2023-06-24T05:01:30;7.85;;;7.03;;
11614;SDS011;5863;52.832;4.758;2023-06-24T05:03:56;8.07;;;6.38;;
11614;SDS011;5863;52.832;4.758;2023-06-24T05:06:23;6.45;;;5.82;;
11614;SDS011;5863;52.832;4.758;2023-06-24T05:08:50;9.55;;;6.45;;
11614;SDS011;5863;52.832;4.758;2023-06-24T05:11:16;8.23;;;6.32;;
11614;SDS011;5863;52.832;4.758;2023-06-24T05:13:45;8.07;;;6.28;;
11614;SDS011;5863;52.832;4.758;2023-06-24T05:16:11;8.35;;;6.22;;
11614;SDS011;5863;52.832;4.758;2023-06-24T05:18:38;7.85;;;5.97;;
11614;SDS011;5863;52.832;4.758;2023-06-24T05:21:05;7.28;;;5.75;;
11614;SDS011;5863;52.832;4.758;2023-06-24T05:23:31;8.30;;;5.70;;
11614;SDS011;5863;52.832;4.758;2023-06-24T05:25:58;7.57;;;5.72;;
11614;SDS011;5863;52.832;4.758;2023-06-24T05:28:25;9.38;;;6.15;;
11614;SDS011;5863;52.832;4.758;2023-06-24T05:30:53;6.97;;;5.53;;
11614;SDS011;5863;52.832;4.758;2023-06-24T05:33:19;8.40;;;5.65;;
11614;SDS011;5863;52.832;4.758;2023-06-24T05:35:46;8.23;;;5.30;;
11614;SDS011;5863;52.832;4.758;2023-06-24T05:38:14;5.60;;;5.00;;
11614;SDS011;5863;52.832;4.758;2023-06-24T05:40:41;7.35;;;5.25;;
11614;SDS011;5863;52.832;4.758;2023-06-24T05:43:07;4.65;;;4.15;;
11614;SDS011;5863;52.832;4.758;2023-06-24T05:45:34;6.18;;;4.30;;
11614;SDS011;5863;52.832;4.758;2023-06-24T05:48:03;5.82;;;4.30;;
11614;SDS011;5863;52.832;4.758;2023-06-24T05:50:30;5.90;;;4.03;;
11614;SDS011;5863;52.832;4.758;2023-06-24T05:52:57;5.25;;;3.85;;
11614;SDS011;5863;52.832;4.758;2023-06-24T05:55:24;5.60;;;3.28;;
11614;SDS011;5863;52.832;4.758;2023-06-24T05:57:50;6.38;;;3.42;;
11614;SDS011;5863;52.832;4.758;2023-06-24T06:00:17;5.63;;;3.20;;
11614;SDS011;5863;52.832;4.758;2023-06-24T06:02:45;4.80;;;3.35;;
11614;SDS011;5863;52.832;4.758;2023-06-24T06:05:13;4.07;;;3.25;;
11614;SDS011;5863;52.832;4.758;2023-06-24T06:07:39;5.53;;;3.30;;
11614;SDS011;5863;52.832;4.758;2023-06-24T06:10:06;5.47;;;3.58;;
11614;SDS011;5863;52.832;4.758;2023-06-24T06:12:36;9.65;;;3.42;;
11614;SDS011;5863;52.832;4.758;2023-06-24T06:15:03;5.32;;;3.30;;
11614;SDS011;5863;52.832;4.758;2023-06-24T06:17:30;4.78;;;2.97;;
11614;SDS011;5863;52.832;4.758;2023-06-24T06:19:58;5.25;;;3.08;;
11614;SDS011;5863;52.832;4.758;2023-06-24T06:22:26;5.32;;;3.15;;
11614;SDS011;5863;52.832;4.758;2023-06-24T06:24:52;6.43;;;3.45;;
11614;SDS011;5863;52.832;4.758;2023-06-24T06:27:19;6.65;;;3.72;;
11614;SDS011;5863;52.832;4.758;2023-06-24T06:29:46;6.57;;;3.65;;
11614;SDS011;5863;52.832;4.758;2023-06-24T06:32:12;4.22;;;3.15;;
11614;SDS011;5863;52.832;4.758;2023-06-24T06:34:39;4.28;;;3.15;;
11614;SDS011;5863;52.832;4.758;2023-06-24T06:37:07;3.85;;;3.20;;
11614;SDS011;5863;52.832;4.758;2023-06-24T06:39:35;4.90;;;3.42;;
11614;SDS011;5863;52.832;4.758;2023-06-24T06:42:02;6.25;;;3.35;;
11614;SDS011;5863;52.832;4.758;2023-06-24T06:44:28;4.40;;;3.10;;
11614;SDS011;5863;52.832;4.758;2023-06-24T06:46:55;7.25;;;3.17;;
11614;SDS011;5863;52.832;4.758;2023-06-24T06:49:22;6.07;;;3.25;;
11614;SDS011;5863;52.832;4.758;2023-06-24T06:51:49;6.75;;;3.40;;
11614;SDS011;5863;52.832;4.758;2023-06-24T06:54:15;6.00;;;3.72;;
11614;SDS011;5863;52.832;4.758;2023-06-24T06:56:43;6.88;;;3.40;;
11614;SDS011;5863;52.832;4.758;2023-06-24T06:59:10;7.45;;;3.83;;
11614;SDS011;5863;52.832;4.758;2023-06-24T07:01:37;6.60;;;3.60;;
11614;SDS011;5863;52.832;4.758;2023-06-24T07:04:04;4.78;;;3.30;;
11614;SDS011;5863;52.832;4.758;2023-06-24T07:06:30;4.65;;;3.60;;
11614;SDS011;5863;52.832;4.758;2023-06-24T07:08:58;4.38;;;3.30;;
11614;SDS011;5863;52.832;4.758;2023-06-24T07:11:25;4.45;;;3.47;;
11614;SDS011;5863;52.832;4.758;2023-06-24T07:13:53;5.95;;;3.40;;
11614;SDS011;5863;52.832;4.758;2023-06-24T07:16:20;6.97;;;3.38;;
11614;SDS011;5863;52.832;4.758;2023-06-24T07:18:46;5.55;;;3.38;;
11614;SDS011;5863;52.832;4.758;2023-06-24T07:21:13;5.60;;;3.33;;
11614;SDS011;5863;52.832;4.758;2023-06-24T07:23:40;7.05;;;3.30;;
11614;SDS011;5863;52.832;4.758;2023-06-24T07:26:07;5.25;;;3.35;;
11614;SDS011;5863;52.832;4.758;2023-06-24T07:28:34;5.88;;;3.72;;
11614;SDS011;5863;52.832;4.758;2023-06-24T07:31:02;4.32;;;2.95;;
11614;SDS011;5863;52.832;4.758;2023-06-24T07:33:28;5.68;;;3.22;;
11614;SDS011;5863;52.832;4.758;2023-06-24T07:35:55;5.95;;;3.90;;
11614;SDS011;5863;52.832;4.758;2023-06-24T07:38:22;3.53;;;3.20;;
11614;SDS011;5863;52.832;4.758;2023-06-24T07:40:49;6.03;;;3.38;;
11614;SDS011;5863;52.832;4.758;2023-06-24T07:43:15;7.75;;;3.25;;
11614;SDS011;5863;52.832;4.758;2023-06-24T07:45:42;6.32;;;3.60;;
11614;SDS011;5863;52.832;4.758;2023-06-24T07:48:10;7.32;;;3.25;;
11614;SDS011;5863;52.832;4.758;2023-06-24T07:50:37;6.57;;;3.50;;
11614;SDS011;5863;52.832;4.758;2023-06-24T07:53:05;5.18;;;3.80;;
11614;SDS011;5863;52.832;4.758;2023-06-24T07:55:31;4.03;;;3.25;;
11614;SDS011;5863;52.832;4.758;2023-06-24T07:57:58;4.50;;;3.50;;
11614;SDS011;5863;52.832;4.758;2023-06-24T08:00:25;6.40;;;3.45;;
11614;SDS011;5863;52.832;4.758;2023-06-24T08:02:52;5.93;;;3.70;;
11614;SDS011;5863;52.832;4.758;2023-06-24T08:05:21;3.95;;;3.45;;
11614;SDS011;5863;52.832;4.758;2023-06-24T08:07:50;5.35;;;3.72;;
11614;SDS011;5863;52.832;4.758;2023-06-24T08:10:17;4.95;;;3.60;;
11614;SDS011;5863;52.832;4.758;2023-06-24T08:12:44;6.15;;;3.83;;
11614;SDS011;5863;52.832;4.758;2023-06-24T08:15:11;6.65;;;4.15;;
11614;SDS011;5863;52.832;4.758;2023-06-24T08:17:39;6.28;;;4.05;;
11614;SDS011;5863;52.832;4.758;2023-06-24T08:20:07;7.53;;;4.00;;
11614;SDS011;5863;52.832;4.758;2023-06-24T08:22:35;9.38;;;4.25;;
11614;SDS011;5863;52.832;4.758;2023-06-24T08:25:02;5.30;;;3.28;;
11614;SDS011;5863;52.832;4.758;2023-06-24T08:27:29;5.95;;;3.60;;
11614;SDS011;5863;52.832;4.758;2023-06-24T08:29:56;4.45;;;3.33;;
11614;SDS011;5863;52.832;4.758;2023-06-24T08:32:23;6.57;;;3.67;;
11614;SDS011;5863;52.832;4.758;2023-06-24T08:34:50;5.60;;;3.92;;
11614;SDS011;5863;52.832;4.758;2023-06-24T08:37:16;6.55;;;3.60;;
11614;SDS011;5863;52.832;4.758;2023-06-24T08:39:44;5.55;;;3.88;;
11614;SDS011;5863;52.832;4.758;2023-06-24T08:42:12;5.82;;;3.45;;
11614;SDS011;5863;52.832;4.758;2023-06-24T08:44:38;6.13;;;3.72;;
11614;SDS011;5863;52.832;4.758;2023-06-24T08:47:05;6.22;;;3.58;;
11614;SDS011;5863;52.832;4.758;2023-06-24T08:49:32;5.65;;;3.60;;
11614;SDS011;5863;52.832;4.758;2023-06-24T08:52:06;4.63;;;3.22;;
11614;SDS011;5863;52.832;4.758;2023-06-24T08:54:37;4.53;;;3.78;;
11614;SDS011;5863;52.832;4.758;2023-06-24T08:57:07;5.25;;;3.75;;
11614;SDS011;5863;52.832;4.758;2023-06-24T08:59:39;5.10;;;3.95;;
11614;SDS011;5863;52.832;4.758;2023-06-24T09:02:06;7.88;;;4.00;;
11614;SDS011;5863;52.832;4.758;2023-06-24T09:04:33;7.10;;;3.83;;
11614;SDS011;5863;52.832;4.758;2023-06-24T09:07:00;8.70;;;4.35;;
11614;SDS011;5863;52.832;4.758;2023-06-24T09:09:28;5.70;;;3.72;;
11614;SDS011;5863;52.832;4.758;2023-06-24T09:11:55;7.75;;;4.45;;
11614;SDS011;5863;52.832;4.758;2023-06-24T09:14:25;7.50;;;4.05;;
11614;SDS011;5863;52.832;4.758;2023-06-24T09:16:52;5.93;;;4.07;;
11614;SDS011;5863;52.832;4.758;2023-06-24T09:19:20;6.78;;;4.15;;
11614;SDS011;5863;52.832;4.758;2023-06-24T09:21:48;8.15;;;4.53;;
11614;SDS011;5863;52.832;4.758;2023-06-24T09:24:14;10.95;;;4.97;;
11614;SDS011;5863;52.832;4.758;2023-06-24T09:26:51;12.00;;;5.97;;
11614;SDS011;5863;52.832;4.758;2023-06-24T09:29:24;10.80;;;5.72;;
11614;SDS011;5863;52.832;4.758;2023-06-24T09:31:51;8.25;;;5.13;;
11614;SDS011;5863;52.832;4.758;2023-06-24T09:34:19;6.82;;;4.72;;
11614;SDS011;5863;52.832;4.758;2023-06-24T09:36:51;6.80;;;4.80;;
11614;SDS011;5863;52.832;4.758;2023-06-24T09:39:18;6.22;;;4.45;;
11614;SDS011;5863;52.832;4.758;2023-06-24T09:41:51;7.45;;;4.20;;
11614;SDS011;5863;52.832;4.758;2023-06-24T09:44:18;9.38;;;5.40;;
11614;SDS011;5863;52.832;4.758;2023-06-24T09:46:45;10.73;;;6.65;;
11614;SDS011;5863;52.832;4.758;2023-06-24T09:49:13;10.77;;;6.85;;
11614;SDS011;5863;52.832;4.758;2023-06-24T09:51:40;10.88;;;7.07;;
11614;SDS011;5863;52.832;4.758;2023-06-24T09:54:10;7.70;;;5.30;;
11614;SDS011;5863;52.832;4.758;2023-06-24T09:56:39;8.25;;;4.78;;
11614;SDS011;5863;52.832;4.758;2023-06-24T09:59:12;8.10;;;4.63;;
11614;SDS011;5863;52.832;4.758;2023-06-24T10:01:39;8.13;;;4.72;;
11614;SDS011;5863;52.832;4.758;2023-06-24T10:04:07;6.10;;;4.15;;
11614;SDS011;5863;52.832;4.758;2023-06-24T10:06:35;7.95;;;4.05;;
11614;SDS011;5863;52.832;4.758;2023-06-24T10:09:02;6.38;;;3.97;;
11614;SDS011;5863;52.832;4.758;2023-06-24T10:11:29;6.75;;;4.40;;
11614;SDS011;5863;52.832;4.758;2023-06-24T10:13:56;8.45;;;4.55;;
11614;SDS011;5863;52.832;4.758;2023-06-24T10:16:25;6.43;;;4.80;;
11614;SDS011;5863;52.832;4.758;2023-06-24T10:18:51;5.20;;;4.38;;
11614;SDS011;5863;52.832;4.758;2023-06-24T10:21:25;7.10;;;4.10;;
11614;SDS011;5863;52.832;4.758;2023-06-24T10:24:10;8.23;;;4.10;;
11614;SDS011;5863;52.832;4.758;2023-06-24T10:26:39;6.40;;;3.90;;
11614;SDS011;5863;52.832;4.758;2023-06-24T10:29:10;6.70;;;4.13;;
11614;SDS011;5863;52.832;4.758;2023-06-24T10:34:33;7.80;;;4.03;;
11614;SDS011;5863;52.832;4.758;2023-06-24T10:37:05;6.25;;;3.75;;
11614;SDS011;5863;52.832;4.758;2023-06-24T10:42:30;6.05;;;4.28;;
11614;SDS011;5863;52.832;4.758;2023-06-24T10:44:59;6.30;;;4.32;;
11614;SDS011;5863;52.832;4.758;2023-06-24T10:47:28;9.18;;;4.32;;
11614;SDS011;5863;52.832;4.758;2023-06-24T10:49:56;9.00;;;4.57;;
11614;SDS011;5863;52.832;4.758;2023-06-24T10:52:22;9.15;;;4.25;;
11614;SDS011;5863;52.832;4.758;2023-06-24T10:54:50;4.85;;;3.78;;
11614;SDS011;5863;52.832;4.758;2023-06-24T10:57:21;9.05;;;4.20;;
11614;SDS011;5863;52.832;4.758;2023-06-24T10:59:49;7.28;;;4.50;;
11614;SDS011;5863;52.832;4.758;2023-06-24T11:02:17;8.27;;;4.90;;
11614;SDS011;5863;52.832;4.758;2023-06-24T11:04:46;7.03;;;4.57;;
11614;SDS011;5863;52.832;4.758;2023-06-24T11:07:14;6.88;;;4.90;;
11614;SDS011;5863;52.832;4.758;2023-06-24T11:09:47;9.85;;;4.80;;
11614;SDS011;5863;52.832;4.758;2023-06-24T11:12:14;8.43;;;4.57;;
11614;SDS011;5863;52.832;4.758;2023-06-24T11:14:41;7.32;;;4.50;;
11614;SDS011;5863;52.832;4.758;2023-06-24T11:17:08;7.63;;;4.68;;
11614;SDS011;5863;52.832;4.758;2023-06-24T11:19:35;7.85;;;5.30;;
11614;SDS011;5863;52.832;4.758;2023-06-24T11:22:05;5.78;;;4.40;;
11614;SDS011;5863;52.832;4.758;2023-06-24T11:24:33;6.95;;;4.70;;
11614;SDS011;5863;52.832;4.758;2023-06-24T11:27:00;7.25;;;5.25;;
11614;SDS011;5863;52.832;4.758;2023-06-24T11:29:28;8.25;;;4.78;;
11614;SDS011;5863;52.832;4.758;2023-06-24T11:31:55;8.00;;;5.03;;
11614;SDS011;5863;52.832;4.758;2023-06-24T11:34:22;7.97;;;4.90;;
11614;SDS011;5863;52.832;4.758;2023-06-24T11:36:49;7.97;;;4.60;;
11614;SDS011;5863;52.832;4.758;2023-06-24T11:39:23;8.85;;;4.80;;
11614;SDS011;5863;52.832;4.758;2023-06-24T11:41:51;8.15;;;4.50;;
11614;SDS011;5863;52.832;4.758;2023-06-24T11:44:19;6.57;;;4.30;;
11614;SDS011;5863;52.832;4.758;2023-06-24T11:46:46;5.88;;;4.25;;
11614;SDS011;5863;52.832;4.758;2023-06-24T11:49:13;7.18;;;4.38;;
11614;SDS011;5863;52.832;4.758;2023-06-24T11:51:45;5.93;;;4.28;;
11614;SDS011;5863;52.832;4.758;2023-06-24T11:54:13;6.75;;;4.40;;
11614;SDS011;5863;52.832;4.758;2023-06-24T11:56:44;7.88;;;4.32;;
11614;SDS011;5863;52.832;4.758;2023-06-24T11:59:15;7.53;;;4.72;;
11614;SDS011;5863;52.832;4.758;2023-06-24T12:01:43;7.45;;;4.90;;
11614;SDS011;5863;52.832;4.758;2023-06-24T12:04:11;8.38;;;5.47;;
11614;SDS011;5863;52.832;4.758;2023-06-24T12:06:38;7.00;;;4.78;;
11614;SDS011;5863;52.832;4.758;2023-06-24T12:09:05;7.95;;;4.40;;
11614;SDS011;5863;52.832;4.758;2023-06-24T12:11:32;5.90;;;4.75;;
11614;SDS011;5863;52.832;4.758;2023-06-24T12:14:00;9.15;;;5.00;;
11614;SDS011;5863;52.832;4.758;2023-06-24T12:16:27;8.15;;;5.07;;
11614;SDS011;5863;52.832;4.758;2023-06-24T12:18:55;6.10;;;4.13;;
11614;SDS011;5863;52.832;4.758;2023-06-24T12:21:21;5.82;;;4.55;;
11614;SDS011;5863;52.832;4.758;2023-06-24T12:23:48;7.63;;;4.97;;
11614;SDS011;5863;52.832;4.758;2023-06-24T12:26:15;8.25;;;4.28;;
11614;SDS011;5863;52.832;4.758;2023-06-24T12:28:42;6.43;;;4.10;;
11614;SDS011;5863;52.832;4.758;2023-06-24T12:31:10;5.65;;;3.90;;
11614;SDS011;5863;52.832;4.758;2023-06-24T12:33:37;5.78;;;4.55;;
11614;SDS011;5863;52.832;4.758;2023-06-24T12:36:04;7.43;;;5.13;;
11614;SDS011;5863;52.832;4.758;2023-06-24T12:38:31;6.65;;;4.75;;
11614;SDS011;5863;52.832;4.758;2023-06-24T12:40:58;5.57;;;4.63;;
11614;SDS011;5863;52.832;4.758;2023-06-24T12:43:24;6.18;;;4.78;;
11614;SDS011;5863;52.832;4.758;2023-06-24T12:45:51;7.10;;;4.80;;
11614;SDS011;5863;52.832;4.758;2023-06-24T12:48:19;5.65;;;4.43;;
11614;SDS011;5863;52.832;4.758;2023-06-24T12:50:46;7.10;;;4.60;;
11614;SDS011;5863;52.832;4.758;2023-06-24T12:53:13;6.43;;;4.80;;
11614;SDS011;5863;52.832;4.758;2023-06-24T12:55:40;7.25;;;4.65;;
11614;SDS011;5863;52.832;4.758;2023-06-24T12:58:07;5.28;;;4.03;;
11614;SDS011;5863;52.832;4.758;2023-06-24T13:00:34;6.20;;;4.50;;
11614;SDS011;5863;52.832;4.758;2023-06-24T13:03:00;5.53;;;4.22;;
11614;SDS011;5863;52.832;4.758;2023-06-24T13:05:28;4.28;;;3.72;;
11614;SDS011;5863;52.832;4.758;2023-06-24T13:07:55;4.57;;;3.60;;
11614;SDS011;5863;52.832;4.758;2023-06-24T13:10:22;7.55;;;3.88;;
11614;SDS011;5863;52.832;4.758;2023-06-24T13:12:48;6.30;;;3.50;;
11614;SDS011;5863;52.832;4.758;2023-06-24T13:15:15;4.88;;;3.55;;
11614;SDS011;5863;52.832;4.758;2023-06-24T13:17:42;4.32;;;3.42;;
11614;SDS011;5863;52.832;4.758;2023-06-24T13:20:09;5.95;;;3.75;;
11614;SDS011;5863;52.832;4.758;2023-06-24T13:22:37;5.57;;;4.43;;
11614;SDS011;5863;52.832;4.758;2023-06-24T13:25:05;4.85;;;3.67;;
11614;SDS011;5863;52.832;4.758;2023-06-24T13:27:32;5.45;;;4.30;;
11614;SDS011;5863;52.832;4.758;2023-06-24T13:29:59;5.15;;;3.58;;
11614;SDS011;5863;52.832;4.758;2023-06-24T13:32:25;4.63;;;3.70;;
11614;SDS011;5863;52.832;4.758;2023-06-24T13:34:52;5.28;;;3.92;;
11614;SDS011;5863;52.832;4.758;2023-06-24T13:37:19;4.35;;;3.58;;
11614;SDS011;5863;52.832;4.758;2023-06-24T13:39:47;5.30;;;3.60;;
11614;SDS011;5863;52.832;4.758;2023-06-24T13:42:13;5.93;;;3.90;;
11614;SDS011;5863;52.832;4.758;2023-06-24T13:44:40;6.88;;;3.72;;
11614;SDS011;5863;52.832;4.758;2023-06-24T13:47:07;5.60;;;3.60;;
11614;SDS011;5863;52.832;4.758;2023-06-24T13:49:33;4.88;;;3.60;;
11614;SDS011;5863;52.832;4.758;2023-06-24T13:52:00;3.50;;;3.10;;
11614;SDS011;5863;52.832;4.758;2023-06-24T13:54:27;6.03;;;3.20;;
11614;SDS011;5863;52.832;4.758;2023-06-24T13:56:59;5.13;;;3.33;;
11614;SDS011;5863;52.832;4.758;2023-06-24T13:59:25;4.10;;;3.28;;
11614;SDS011;5863;52.832;4.758;2023-06-24T14:01:52;6.68;;;3.70;;
11614;SDS011;5863;52.832;4.758;2023-06-24T14:04:19;4.85;;;3.28;;
11614;SDS011;5863;52.832;4.758;2023-06-24T14:06:46;4.68;;;3.17;;
11614;SDS011;5863;52.832;4.758;2023-06-24T14:09:12;5.55;;;3.40;;
11614;SDS011;5863;52.832;4.758;2023-06-24T14:11:39;4.35;;;3.50;;
11614;SDS011;5863;52.832;4.758;2023-06-24T14:14:07;5.57;;;3.33;;
11614;SDS011;5863;52.832;4.758;2023-06-24T14:16:34;5.22;;;3.30;;
11614;SDS011;5863;52.832;4.758;2023-06-24T14:19:01;6.55;;;3.22;;
11614;SDS011;5863;52.832;4.758;2023-06-24T14:21:27;5.63;;;3.50;;
11614;SDS011;5863;52.832;4.758;2023-06-24T14:23:56;3.47;;;3.17;;
11614;SDS011;5863;52.832;4.758;2023-06-24T14:26:23;7.18;;;3.50;;
11614;SDS011;5863;52.832;4.758;2023-06-24T14:28:50;3.95;;;3.20;;
11614;SDS011;5863;52.832;4.758;2023-06-24T14:31:18;3.45;;;3.15;;
11614;SDS011;5863;52.832;4.758;2023-06-24T14:33:44;6.47;;;3.03;;
11614;SDS011;5863;52.832;4.758;2023-06-24T14:36:11;3.85;;;3.10;;
11614;SDS011;5863;52.832;4.758;2023-06-24T14:38:38;5.20;;;3.42;;
11614;SDS011;5863;52.832;4.758;2023-06-24T14:41:06;4.18;;;3.40;;
11614;SDS011;5863;52.832;4.758;2023-06-24T14:43:33;4.93;;;3.47;;
11614;SDS011;5863;52.832;4.758;2023-06-24T14:46:00;3.90;;;3.25;;
11614;SDS011;5863;52.832;4.758;2023-06-24T14:48:28;4.50;;;3.30;;
11614;SDS011;5863;52.832;4.758;2023-06-24T14:50:55;5.38;;;3.00;;
11614;SDS011;5863;52.832;4.758;2023-06-24T14:53:21;3.67;;;2.95;;
11614;SDS011;5863;52.832;4.758;2023-06-24T14:55:48;3.30;;;3.00;;
11614;SDS011;5863;52.832;4.758;2023-06-24T14:58:15;4.47;;;3.00;;
11614;SDS011;5863;52.832;4.758;2023-06-24T15:00:42;4.45;;;3.10;;
11614;SDS011;5863;52.832;4.758;2023-06-24T15:03:08;4.57;;;3.10;;
11614;SDS011;5863;52.832;4.758;2023-06-24T15:05:36;3.83;;;3.15;;